createdAt,value
2023-04-11T00:01:23.584Z,100323.16
2023-04-11T00:03:50.424Z,100326.38
2023-04-11T00:06:17.046Z,100323.84
2023-04-11T00:08:44.472Z,100331.75
2023-04-11T00:11:10.956Z,100323.88
2023-04-11T00:13:37.886Z,100315.25
2023-04-11T00:16:04.728Z,100303.00
2023-04-11T00:18:31.255Z,100311.81
2023-04-11T00:20:57.726Z,100313.50
2023-04-11T00:23:24.146Z,100305.53
2023-04-11T00:25:50.957Z,100303.00
2023-04-11T00:28:17.508Z,100293.41
2023-04-11T00:30:43.979Z,100292.59
2023-04-11T00:33:10.451Z,100289.09
2023-04-11T00:35:37.993Z,100285.72
2023-04-11T00:38:04.896Z,100279.56
2023-04-11T00:40:31.416Z,100276.94
2023-04-11T00:42:57.952Z,100282.91
2023-04-11T00:45:24.610Z,100286.41
2023-04-11T00:47:51.324Z,100286.44
2023-04-11T00:50:18.526Z,100277.00
2023-04-11T00:52:47.069Z,100271.72
2023-04-11T00:55:14.167Z,100267.34
2023-04-11T00:57:41.988Z,100267.38
2023-04-11T01:00:12.008Z,100269.88
2023-04-11T01:02:43.255Z,100275.09
2023-04-11T01:05:11.109Z,100273.38
2023-04-11T01:07:38.402Z,100264.88
2023-04-11T01:10:06.003Z,100261.22
2023-04-11T01:12:32.737Z,100270.03
2023-04-11T01:14:59.399Z,100259.47
2023-04-11T01:17:26.019Z,100262.97
2023-04-11T01:19:52.749Z,100260.41
2023-04-11T01:22:21.434Z,100250.88
2023-04-11T01:24:47.945Z,100250.03
2023-04-11T01:27:14.478Z,100255.06
2023-04-11T01:29:41.195Z,100259.56
2023-04-11T01:32:08.015Z,100262.91
2023-04-11T01:34:35.430Z,100249.22
2023-04-11T01:37:02.294Z,100244.03
2023-04-11T01:39:28.812Z,100243.88
2023-04-11T01:41:57.051Z,100240.38
2023-04-11T01:44:24.465Z,100238.59
2023-04-11T01:46:51.455Z,100225.44
2023-04-11T01:49:18.831Z,100208.88
2023-04-11T01:51:45.835Z,100223.47
2023-04-11T01:54:12.381Z,100208.84
2023-04-11T01:56:38.857Z,100216.69
2023-04-11T01:59:05.319Z,100217.69
2023-04-11T02:01:32.138Z,100212.53
2023-04-11T02:03:58.817Z,100213.38
2023-04-11T02:06:27.522Z,100222.91
2023-04-11T02:08:54.593Z,100214.34
2023-04-11T02:11:21.450Z,100214.41
2023-04-11T02:13:48.028Z,100208.25
2023-04-11T02:16:18.022Z,100199.69
2023-04-11T02:18:45.872Z,100196.13
2023-04-11T02:21:12.618Z,100191.69
2023-04-11T02:23:39.165Z,100190.75
2023-04-11T02:26:05.815Z,100189.03
2023-04-11T02:28:32.352Z,100186.41
2023-04-11T02:30:59.250Z,100179.53
2023-04-11T02:33:26.242Z,100178.59
2023-04-11T02:35:52.848Z,100186.50
2023-04-11T02:38:19.733Z,100196.09
2023-04-11T02:40:46.822Z,100198.56
2023-04-11T02:43:13.459Z,100182.97
2023-04-11T02:45:39.930Z,100184.63
2023-04-11T02:48:06.636Z,100174.31
2023-04-11T02:50:33.091Z,100181.28
2023-04-11T02:52:59.616Z,100176.97
2023-04-11T02:55:27.114Z,100173.50
2023-04-11T02:57:53.599Z,100174.38
2023-04-11T03:00:21.390Z,100156.91
2023-04-11T03:02:49.165Z,100162.13
2023-04-11T03:05:16.052Z,100157.81
2023-04-11T03:07:43.850Z,100157.56
2023-04-11T03:10:10.582Z,100155.03
2023-04-11T03:12:37.148Z,100162.94
2023-04-11T03:15:03.929Z,100160.31
2023-04-11T03:17:30.452Z,100154.19
2023-04-11T03:19:56.902Z,100152.44
2023-04-11T03:22:24.512Z,100150.84
2023-04-11T03:24:51.080Z,100144.75
2023-04-11T03:27:17.547Z,100140.44
2023-04-11T03:29:43.987Z,100149.13
2023-04-11T03:32:10.691Z,100152.34
2023-04-11T03:34:37.129Z,100159.06
2023-04-11T03:37:03.736Z,100150.63
2023-04-11T03:39:30.310Z,100144.38
2023-04-11T03:41:57.798Z,100145.13
2023-04-11T03:44:24.248Z,100136.63
2023-04-11T03:46:50.810Z,100127.06
2023-04-11T03:49:17.304Z,100119.81
2023-04-11T03:51:43.828Z,100113.00
2023-04-11T03:54:10.310Z,100102.72
2023-04-11T03:56:36.841Z,100094.00
2023-04-11T03:59:03.303Z,100116.41
2023-04-11T04:01:29.791Z,100109.56
2023-04-11T04:03:56.632Z,100109.91
2023-04-11T04:06:23.443Z,100121.16
2023-04-11T04:08:49.898Z,100132.38
2023-04-11T04:11:16.407Z,100148.56
2023-04-11T04:13:42.846Z,100158.53
2023-04-11T04:16:09.620Z,100168.91
2023-04-11T04:18:36.225Z,100185.47
2023-04-11T04:21:02.842Z,100184.88
2023-04-11T04:23:29.998Z,100188.66
2023-04-11T04:25:58.150Z,100201.09
2023-04-11T04:28:26.032Z,100201.06
2023-04-11T04:30:55.539Z,100208.59
2023-04-11T04:33:22.015Z,100205.28
2023-04-11T04:35:48.673Z,100210.72
2023-04-11T04:38:17.948Z,100215.81
2023-04-11T04:40:44.643Z,100207.03
2023-04-11T04:43:18.720Z,100213.31
2023-04-11T04:45:45.586Z,100223.59
2023-04-11T04:48:13.701Z,100223.66
2023-04-11T04:50:40.256Z,100214.47
2023-04-11T04:53:07.333Z,100222.50
2023-04-11T04:55:34.480Z,100218.16
2023-04-11T04:58:01.200Z,100221.75
2023-04-11T05:00:27.637Z,100220.47
2023-04-11T05:02:55.012Z,100212.47
2023-04-11T05:05:21.738Z,100224.84
2023-04-11T05:07:48.439Z,100216.59
2023-04-11T05:10:15.806Z,100223.31
2023-04-11T05:12:42.267Z,100224.22
2023-04-11T05:15:11.842Z,100221.84
2023-04-11T05:17:38.663Z,100228.41
2023-04-11T05:20:07.351Z,100224.94
2023-04-11T05:22:33.846Z,100211.31
2023-04-11T05:25:01.079Z,100209.50
2023-04-11T05:27:27.557Z,100206.28
2023-04-11T05:29:54.266Z,100202.53
2023-04-11T05:32:20.895Z,100196.63
2023-04-11T05:34:53.108Z,100195.41
2023-04-11T05:37:20.124Z,100198.50
2023-04-11T05:39:47.110Z,100201.63
2023-04-11T05:42:15.388Z,100204.19
2023-04-11T05:44:42.135Z,100218.44
2023-04-11T05:47:08.596Z,100219.91
2023-04-11T05:49:35.042Z,100218.75
2023-04-11T05:52:01.622Z,100224.03
2023-04-11T05:54:37.597Z,100217.22
2023-04-11T05:57:04.304Z,100227.97
2023-04-11T05:59:31.872Z,100229.88
2023-04-11T06:01:59.216Z,100227.56
2023-04-11T06:04:26.487Z,100220.00
2023-04-11T06:06:53.654Z,100222.84
2023-04-11T06:09:20.351Z,100218.47
2023-04-11T06:11:46.843Z,100209.56
2023-04-11T06:14:13.287Z,100208.97
2023-04-11T06:16:39.890Z,100214.28
2023-04-11T06:19:06.333Z,100222.84
2023-04-11T06:21:32.930Z,100225.38
2023-04-11T06:24:09.216Z,100229.06
2023-04-11T06:26:35.708Z,100221.00
2023-04-11T06:29:06.215Z,100228.28
2023-04-11T06:31:33.744Z,100215.66
2023-04-11T06:34:01.296Z,100230.59
2023-04-11T06:36:27.840Z,100226.16
2023-04-11T06:38:54.294Z,100225.47
2023-04-11T06:41:20.805Z,100234.59
2023-04-11T06:43:47.266Z,100248.34
2023-04-11T06:46:13.759Z,100233.88
2023-04-11T06:48:40.286Z,100233.25
2023-04-11T06:51:09.027Z,100232.28
2023-04-11T06:53:35.512Z,100239.03
2023-04-11T06:56:02.005Z,100236.69
2023-04-11T06:58:28.506Z,100234.78
2023-04-11T07:00:54.925Z,100243.50
2023-04-11T07:03:21.567Z,100243.19
2023-04-11T07:05:48.327Z,100249.69
2023-04-11T07:08:14.787Z,100250.53
2023-04-11T07:10:41.261Z,100259.88
2023-04-11T07:13:07.769Z,100255.47
2023-04-11T07:15:34.182Z,100267.81
2023-04-11T07:18:00.784Z,100260.06
2023-04-11T07:20:27.426Z,100262.09
2023-04-11T07:22:54.120Z,100263.84
2023-04-11T07:25:22.627Z,100259.63
2023-04-11T07:27:53.095Z,100260.78
2023-04-11T07:30:19.588Z,100259.16
2023-04-11T07:32:46.617Z,100259.47
2023-04-11T07:35:13.126Z,100257.00
2023-04-11T07:37:40.109Z,100262.22
2023-04-11T07:40:10.710Z,100261.34
2023-04-11T07:42:37.398Z,100264.59
2023-04-11T07:45:04.152Z,100263.75
2023-04-11T07:47:30.622Z,100268.13
2023-04-11T07:49:57.174Z,100264.56
2023-04-11T07:52:23.633Z,100264.69
2023-04-11T07:54:50.066Z,100273.47
2023-04-11T07:57:16.616Z,100279.50
2023-04-11T07:59:43.343Z,100287.81
2023-04-11T08:02:10.053Z,100288.69
2023-04-11T08:04:37.272Z,100293.38
2023-04-11T08:07:04.060Z,100304.28
2023-04-11T08:09:30.535Z,100299.50
2023-04-11T08:11:57.018Z,100310.72
2023-04-11T08:14:23.573Z,100305.53
2023-04-11T08:16:52.350Z,100311.09
2023-04-11T08:19:19.451Z,100311.97
2023-04-11T08:21:46.026Z,100303.91
2023-04-11T08:24:12.502Z,100303.84
2023-04-11T08:26:38.977Z,100302.53
2023-04-11T08:29:05.432Z,100305.78
2023-04-11T08:31:32.453Z,100309.16
2023-04-11T08:34:01.106Z,100310.06
2023-04-11T08:36:29.630Z,100304.28
2023-04-11T08:38:56.909Z,100317.97
2023-04-11T08:41:23.464Z,100303.56
2023-04-11T08:43:49.960Z,100313.44
2023-04-11T08:46:18.413Z,100309.97
2023-04-11T08:48:45.274Z,100317.03
2023-04-11T08:51:12.737Z,100319.63
2023-04-11T08:53:39.887Z,100314.16
2023-04-11T08:56:06.628Z,100326.13
2023-04-11T08:58:33.134Z,100329.50
2023-04-11T09:01:27.160Z,100328.91
2023-04-11T09:03:53.747Z,100335.75
2023-04-11T09:06:20.862Z,100341.28
2023-04-11T09:08:47.407Z,100351.34
2023-04-11T09:11:13.877Z,100347.88
2023-04-11T09:13:40.389Z,100352.16
2023-04-11T09:16:12.348Z,100353.97
2023-04-11T09:18:41.306Z,100355.75
2023-04-11T09:21:12.746Z,100344.97
2023-04-11T09:23:39.402Z,100360.56
2023-04-11T09:26:11.927Z,100354.84
2023-04-11T09:28:43.013Z,100351.66
2023-04-11T09:31:10.788Z,100360.06
2023-04-11T09:33:37.306Z,100367.03
2023-04-11T09:36:18.345Z,100360.69
2023-04-11T09:38:44.825Z,100357.75
2023-04-11T09:41:11.313Z,100356.47
2023-04-11T09:43:55.413Z,100363.66
2023-04-11T09:46:22.301Z,100373.84
2023-04-11T09:48:49.843Z,100370.97
2023-04-11T09:51:28.227Z,100370.84
2023-04-11T09:54:03.402Z,100371.38
2023-04-11T09:56:31.098Z,100370.16
2023-04-11T09:59:00.183Z,100375.34
2023-04-11T10:01:27.441Z,100374.44
2023-04-11T10:03:56.101Z,100369.44
2023-04-11T10:06:31.316Z,100377.28
2023-04-11T10:09:09.506Z,100371.41
2023-04-11T10:11:36.643Z,100373.94
2023-04-11T10:14:03.873Z,100370.44
2023-04-11T10:16:32.567Z,100370.44
2023-04-11T10:19:00.285Z,100372.47
2023-04-11T10:21:32.988Z,100358.63
2023-04-11T10:24:16.615Z,100377.63
2023-04-11T10:26:57.841Z,100372.31
2023-04-11T10:29:33.047Z,100384.22
2023-04-11T10:32:13.526Z,100386.47
2023-04-11T10:34:41.967Z,100382.97
2023-04-11T10:37:09.806Z,100381.94
2023-04-11T10:39:51.432Z,100388.03
2023-04-11T10:42:34.069Z,100382.88
2023-04-11T10:45:25.069Z,100388.88
2023-04-11T10:47:51.551Z,100396.88
2023-04-11T10:50:26.954Z,100405.59
2023-04-11T10:53:00.914Z,100404.63
2023-04-11T10:55:29.065Z,100401.00
2023-04-11T10:58:16.756Z,100411.53
2023-04-11T11:00:53.518Z,100415.56
2023-04-11T11:03:21.040Z,100417.38
2023-04-11T11:05:49.875Z,100424.94
2023-04-11T11:08:27.195Z,100425.47
2023-04-11T11:10:54.204Z,100428.66
2023-04-11T11:13:47.895Z,100436.56
2023-04-11T11:16:22.434Z,100438.00
2023-04-11T11:18:59.120Z,100450.81
2023-04-11T11:24:14.601Z,100457.72
2023-04-11T11:26:44.556Z,100449.53
2023-04-11T11:29:11.409Z,100460.56
2023-04-11T11:31:45.488Z,100454.06
2023-04-11T11:34:23.641Z,100463.19
2023-04-11T11:36:51.223Z,100480.00
2023-04-11T11:39:18.725Z,100486.56
2023-04-11T11:41:46.181Z,100490.47
2023-04-11T11:44:32.910Z,100496.00
2023-04-11T11:47:06.974Z,100505.66
2023-04-11T11:49:49.728Z,100509.31
2023-04-11T11:52:35.206Z,100522.97
2023-04-11T11:55:03.594Z,100525.41
2023-04-11T11:57:30.148Z,100525.00
2023-04-11T11:59:57.639Z,100531.47
2023-04-11T12:02:26.121Z,100532.72
2023-04-11T12:05:00.787Z,100543.84
2023-04-11T12:07:32.465Z,100543.13
2023-04-11T12:10:03.102Z,100547.41
2023-04-11T12:12:41.025Z,100550.06
2023-04-11T12:15:12.379Z,100558.69
2023-04-11T12:17:39.484Z,100556.38
2023-04-11T12:20:08.009Z,100559.56
2023-04-11T12:22:35.085Z,100567.97
2023-04-11T12:25:19.692Z,100568.63
2023-04-11T12:27:47.136Z,100573.63
2023-04-11T12:30:17.033Z,100574.66
2023-04-11T12:32:44.587Z,100586.53
2023-04-11T12:35:12.591Z,100582.41
2023-04-11T12:37:39.238Z,100597.16
2023-04-11T12:40:12.067Z,100591.53
2023-04-11T12:42:53.185Z,100590.56
2023-04-11T12:45:22.134Z,100593.00
2023-04-11T12:47:48.668Z,100597.50
2023-04-11T12:50:15.444Z,100598.56
2023-04-11T12:52:41.940Z,100614.53
2023-04-11T12:55:09.505Z,100612.94
2023-04-11T12:57:36.693Z,100609.16
2023-04-11T13:00:13.325Z,100608.75
2023-04-11T13:02:43.962Z,100619.56
2023-04-11T13:05:14.044Z,100618.28
2023-04-11T13:07:41.189Z,100618.47
2023-04-11T13:10:08.177Z,100635.31
2023-04-11T13:12:39.757Z,100637.75
2023-04-11T13:15:07.904Z,100628.47
2023-04-11T13:17:34.491Z,100637.47
2023-04-11T13:20:01.285Z,100641.22
2023-04-11T13:22:27.789Z,100645.78
2023-04-11T13:24:54.234Z,100645.69
2023-04-11T13:27:22.138Z,100657.53
2023-04-11T13:29:48.731Z,100650.38
2023-04-11T13:32:15.413Z,100638.97
2023-04-11T13:34:41.884Z,100650.28
2023-04-11T13:37:08.404Z,100653.91
2023-04-11T13:39:34.882Z,100655.25
2023-04-11T13:42:01.399Z,100647.22
2023-04-11T13:44:27.853Z,100654.91
2023-04-11T13:46:54.438Z,100649.50
2023-04-11T13:49:21.137Z,100655.25
2023-04-11T13:51:47.647Z,100654.81
2023-04-11T13:54:14.151Z,100666.50
2023-04-11T13:56:41.173Z,100671.44
2023-04-11T13:59:07.759Z,100679.59
2023-04-11T14:01:34.673Z,100681.81
2023-04-11T14:04:01.514Z,100678.94
2023-04-11T14:06:28.407Z,100686.00
2023-04-11T14:08:55.103Z,100687.63
2023-04-11T14:11:21.657Z,100680.09
2023-04-11T14:13:48.728Z,100683.69
2023-04-11T14:16:15.418Z,100687.78
2023-04-11T14:18:42.379Z,100673.53
2023-04-11T14:21:08.954Z,100681.75
2023-04-11T14:23:36.835Z,100681.03
2023-04-11T14:26:03.617Z,100678.22
2023-04-11T14:28:30.748Z,100683.06
2023-04-11T14:30:57.325Z,100689.03
2023-04-11T14:33:24.271Z,100686.81
2023-04-11T14:35:51.166Z,100682.31
2023-04-11T14:38:18.901Z,100689.81
2023-04-11T14:40:45.533Z,100694.28
2023-04-11T14:43:12.249Z,100691.63
2023-04-11T14:45:38.778Z,100696.13
2023-04-11T14:48:05.490Z,100700.75
2023-04-11T14:50:32.112Z,100702.53
2023-04-11T14:52:58.676Z,100708.09
2023-04-11T14:55:25.217Z,100707.69
2023-04-11T14:57:54.081Z,100713.47
2023-04-11T15:00:24.881Z,100709.31
2023-04-11T15:02:56.091Z,100711.06
2023-04-11T15:05:23.797Z,100707.00
2023-04-11T15:07:52.335Z,100705.16
2023-04-11T15:10:20.861Z,100711.56
2023-04-11T15:12:47.573Z,100712.44
2023-04-11T15:15:14.919Z,100717.88
2023-04-11T15:17:43.723Z,100709.72
2023-04-11T15:20:11.793Z,100712.81
2023-04-11T15:22:41.295Z,100720.16
2023-04-11T15:25:09.956Z,100721.91
2023-04-11T15:27:36.598Z,100726.09
2023-04-11T15:30:05.884Z,100728.22
2023-04-11T15:32:32.401Z,100727.47
2023-04-11T15:34:59.414Z,100725.06
2023-04-11T15:37:26.420Z,100728.09
2023-04-11T15:39:52.945Z,100737.28
2023-04-11T15:42:19.463Z,100735.66
2023-04-11T15:44:46.096Z,100734.44
2023-04-11T15:47:12.695Z,100732.19
2023-04-11T15:49:39.631Z,100740.00
2023-04-11T15:52:07.033Z,100746.34
2023-04-11T15:54:33.684Z,100744.00
2023-04-11T15:57:00.260Z,100745.16
2023-04-11T15:59:26.781Z,100748.28
2023-04-11T16:01:53.425Z,100749.81
2023-04-11T16:04:20.569Z,100751.66
2023-04-11T16:06:47.044Z,100755.13
2023-04-11T16:09:13.516Z,100758.34
2023-04-11T16:11:40.157Z,100754.63
2023-04-11T16:14:07.025Z,100757.13
2023-04-11T16:16:33.508Z,100760.56
2023-04-11T16:18:59.994Z,100765.47
2023-04-11T16:21:27.180Z,100764.03
2023-04-11T16:23:56.853Z,100770.41
2023-04-11T16:26:24.036Z,100766.53
2023-04-11T16:28:50.653Z,100765.91
2023-04-11T16:31:21.990Z,100766.13
2023-04-11T16:33:48.569Z,100766.88
2023-04-11T16:36:15.582Z,100769.81
2023-04-11T16:38:42.363Z,100770.94
2023-04-11T16:41:08.805Z,100765.75
2023-04-11T16:43:35.255Z,100775.63
2023-04-11T16:46:01.735Z,100773.69
2023-04-11T16:48:28.319Z,100770.94
2023-04-11T16:50:54.770Z,100774.56
2023-04-11T16:53:21.284Z,100777.81
2023-04-11T16:55:47.736Z,100777.22
2023-04-11T16:58:14.220Z,100776.44
2023-04-11T17:00:40.716Z,100784.38
2023-04-11T17:03:07.395Z,100783.25
2023-04-11T17:05:41.694Z,100787.84
2023-04-11T17:08:08.186Z,100789.88
2023-04-11T17:10:34.634Z,100784.47
2023-04-11T17:13:01.093Z,100791.44
2023-04-11T17:15:28.818Z,100786.25
2023-04-11T17:17:55.370Z,100802.03
2023-04-11T17:20:22.544Z,100799.84
2023-04-11T17:22:49.090Z,100798.06
2023-04-11T17:25:15.661Z,100797.88
2023-04-11T17:27:42.186Z,100803.72
2023-04-11T17:30:12.214Z,100818.38
2023-04-11T17:32:38.894Z,100813.53
2023-04-11T17:35:08.753Z,100809.78
2023-04-11T17:37:36.057Z,100815.47
2023-04-11T17:40:11.202Z,100816.97
2023-04-11T17:42:37.684Z,100820.97
2023-04-11T17:45:16.519Z,100832.19
2023-04-11T17:47:44.721Z,100832.56
2023-04-11T17:50:13.105Z,100832.84
2023-04-11T17:52:41.989Z,100831.34
2023-04-11T17:55:12.948Z,100837.63
2023-04-11T17:57:39.588Z,100829.75
2023-04-11T18:00:20.068Z,100829.88
2023-04-11T18:02:48.900Z,100831.31
2023-04-11T18:05:23.602Z,100837.34
2023-04-11T18:07:51.604Z,100827.41
2023-04-11T18:10:18.531Z,100836.81
2023-04-11T18:12:52.103Z,100831.28
2023-04-11T18:15:18.800Z,100840.88
2023-04-11T18:17:45.796Z,100841.59
2023-04-11T18:20:13.318Z,100850.13
2023-04-11T18:22:57.914Z,100854.81
2023-04-11T18:25:24.579Z,100843.31
2023-04-11T18:27:51.142Z,100858.00
2023-04-11T18:30:18.170Z,100848.25
2023-04-11T18:32:50.259Z,100857.34
2023-04-11T18:35:18.446Z,100854.56
2023-04-11T18:37:45.186Z,100855.13
2023-04-11T18:40:16.211Z,100853.75
2023-04-11T18:42:46.096Z,100854.16
2023-04-11T18:45:14.105Z,100853.53
2023-04-11T18:47:41.864Z,100856.66
2023-04-11T18:50:09.002Z,100851.94
2023-04-11T18:52:35.670Z,100858.31
2023-04-11T18:55:02.197Z,100856.56
2023-04-11T18:57:31.772Z,100857.88
2023-04-11T19:00:03.988Z,100855.16
2023-04-11T19:02:31.271Z,100853.56
2023-04-11T19:05:03.241Z,100851.91
2023-04-11T19:07:31.815Z,100855.88
2023-04-11T19:09:58.732Z,100852.47
2023-04-11T19:12:25.358Z,100855.25
2023-04-11T19:14:52.283Z,100849.78
2023-04-11T19:17:18.847Z,100850.63
2023-04-11T19:19:45.676Z,100852.47
2023-04-11T19:22:12.823Z,100857.91
2023-04-11T19:24:39.318Z,100851.41
2023-04-11T19:27:06.109Z,100855.22
2023-04-11T19:29:32.820Z,100848.16
2023-04-11T19:31:59.327Z,100850.91
2023-04-11T19:34:25.801Z,100847.69
2023-04-11T19:36:52.298Z,100847.59
2023-04-11T19:39:18.745Z,100850.56
2023-04-11T19:41:48.648Z,100840.91
2023-04-11T19:44:15.237Z,100851.00
2023-04-11T19:46:41.743Z,100853.59
2023-04-11T19:49:08.437Z,100848.63
2023-04-11T19:51:35.040Z,100843.59
2023-04-11T19:54:01.536Z,100847.25
2023-04-11T19:56:28.083Z,100853.34
2023-04-11T19:58:54.550Z,100846.00
2023-04-11T20:01:21.204Z,100844.56
2023-04-11T20:03:47.800Z,100845.91
2023-04-11T20:06:14.272Z,100847.28
2023-04-11T20:08:40.950Z,100847.09
2023-04-11T20:11:07.470Z,100848.88
2023-04-11T20:13:34.018Z,100842.22
2023-04-11T20:16:01.180Z,100847.69
2023-04-11T20:18:28.754Z,100836.81
2023-04-11T20:20:55.327Z,100828.19
2023-04-11T20:23:21.893Z,100827.03
2023-04-11T20:25:48.367Z,100831.63
2023-04-11T20:28:14.850Z,100831.34
2023-04-11T20:30:41.859Z,100827.63
2023-04-11T20:33:08.385Z,100827.06
2023-04-11T20:35:34.950Z,100829.84
2023-04-11T20:38:01.539Z,100826.28
2023-04-11T20:40:28.289Z,100835.38
2023-04-11T20:42:56.378Z,100836.34
2023-04-11T20:45:25.672Z,100839.22
2023-04-11T20:47:52.979Z,100844.41
2023-04-11T20:50:19.959Z,100843.94
2023-04-11T20:52:47.793Z,100851.59
2023-04-11T20:55:14.494Z,100854.75
2023-04-11T20:57:41.359Z,100858.56
2023-04-11T21:00:16.919Z,100854.31
2023-04-11T21:02:45.944Z,100845.59
2023-04-11T21:05:13.769Z,100847.38
2023-04-11T21:07:41.534Z,100845.19
2023-04-11T21:10:08.649Z,100841.09
2023-04-11T21:12:35.279Z,100843.81
2023-04-11T21:15:02.914Z,100853.03
2023-04-11T21:17:36.390Z,100850.38
2023-04-11T21:20:12.158Z,100852.53
2023-04-11T21:22:40.226Z,100840.97
2023-04-11T21:25:07.352Z,100835.69
2023-04-11T21:27:33.925Z,100831.38
2023-04-11T21:30:00.462Z,100841.25
2023-04-11T21:32:28.084Z,100839.50
2023-04-11T21:34:54.589Z,100833.00
2023-04-11T21:37:21.075Z,100838.13
2023-04-11T21:39:47.510Z,100826.28
2023-04-11T21:42:13.976Z,100825.81
2023-04-11T21:44:40.548Z,100821.34
2023-04-11T21:47:07.280Z,100819.53
2023-04-11T21:49:33.761Z,100820.81
2023-04-11T21:52:00.459Z,100809.38
2023-04-11T21:54:26.921Z,100805.75
2023-04-11T21:56:53.387Z,100804.44
2023-04-11T21:59:19.888Z,100813.84
2023-04-11T22:01:47.867Z,100810.47
2023-04-11T22:04:23.172Z,100803.47
2023-04-11T22:06:49.916Z,100805.53
2023-04-11T22:09:18.159Z,100805.53
2023-04-11T22:11:44.655Z,100807.13
2023-04-11T22:14:16.195Z,100801.28
2023-04-11T22:16:48.961Z,100787.63
2023-04-11T22:19:19.093Z,100798.44
2023-04-11T22:21:55.824Z,100794.69
2023-04-11T22:24:23.980Z,100793.72
2023-04-11T22:26:53.879Z,100795.63
2023-04-11T22:29:21.752Z,100798.03
2023-04-11T22:31:49.702Z,100791.75
2023-04-11T22:34:17.259Z,100800.84
2023-04-11T22:36:43.750Z,100794.69
2023-04-11T22:39:10.526Z,100790.31
2023-04-11T22:41:38.664Z,100792.13
2023-04-11T22:44:06.065Z,100795.69
2023-04-11T22:46:33.993Z,100783.63
2023-04-11T22:49:00.531Z,100783.31
2023-04-11T22:51:30.069Z,100774.31
2023-04-11T22:53:57.246Z,100784.16
2023-04-11T22:56:24.225Z,100775.31
2023-04-11T22:58:51.014Z,100777.31
2023-04-11T23:01:17.675Z,100778.59
2023-04-11T23:03:44.301Z,100769.50
2023-04-11T23:06:11.054Z,100773.16
2023-04-11T23:08:37.581Z,100774.72
2023-04-11T23:11:05.124Z,100772.59
2023-04-11T23:13:31.597Z,100774.47
2023-04-11T23:16:00.291Z,100772.13
2023-04-11T23:18:26.814Z,100769.78
2023-04-11T23:20:53.301Z,100778.91
2023-04-11T23:23:22.626Z,100772.28
2023-04-11T23:25:49.565Z,100766.50
2023-04-11T23:28:16.056Z,100763.63
2023-04-11T23:30:44.545Z,100757.94
2023-04-11T23:33:12.091Z,100762.94
2023-04-11T23:35:39.439Z,100752.03
2023-04-11T23:38:06.924Z,100751.66
2023-04-11T23:40:33.943Z,100751.13
2023-04-11T23:43:01.109Z,100751.19
2023-04-11T23:45:28.074Z,100736.03
2023-04-11T23:47:55.486Z,100739.16
2023-04-11T23:50:23.252Z,100738.94
2023-04-11T23:52:54.069Z,100742.00
2023-04-11T23:55:22.158Z,100723.84
2023-04-11T23:57:49.554Z,100729.22
